sensor_id;sensor_type;location;lat;lon;timestamp;P1;durP1;ratioP1;P2;durP2;ratioP2
74204;SDS011;62564;52.678;4.900;2023-05-07T00:00:00;5.05;;;2.83;;
74204;SDS011;62564;52.678;4.900;2023-05-07T00:02:25;5.93;;;3.60;;
74204;SDS011;62564;52.678;4.900;2023-05-07T00:04:50;5.13;;;2.90;;
74204;SDS011;62564;52.678;4.900;2023-05-07T00:07:17;4.80;;;3.47;;
74204;SDS011;62564;52.678;4.900;2023-05-07T00:09:42;4.85;;;3.58;;
74204;SDS011;62564;52.678;4.900;2023-05-07T00:12:07;4.80;;;3.47;;
74204;SDS011;62564;52.678;4.900;2023-05-07T00:14:33;5.00;;;3.47;;
74204;SDS011;62564;52.678;4.900;2023-05-07T00:16:58;6.60;;;3.67;;
74204;SDS011;62564;52.678;4.900;2023-05-07T00:19:23;5.75;;;3.63;;
74204;SDS011;62564;52.678;4.900;2023-05-07T00:21:49;5.63;;;3.28;;
74204;SDS011;62564;52.678;4.900;2023-05-07T00:24:14;6.60;;;4.03;;
74204;SDS011;62564;52.678;4.900;2023-05-07T00:26:39;6.45;;;3.90;;
74204;SDS011;62564;52.678;4.900;2023-05-07T00:29:05;5.90;;;3.73;;
74204;SDS011;62564;52.678;4.900;2023-05-07T00:31:30;6.33;;;4.37;;
74204;SDS011;62564;52.678;4.900;2023-05-07T00:33:55;6.73;;;3.80;;
74204;SDS011;62564;52.678;4.900;2023-05-07T00:36:20;5.47;;;3.73;;
74204;SDS011;62564;52.678;4.900;2023-05-07T00:38:46;6.87;;;4.77;;
74204;SDS011;62564;52.678;4.900;2023-05-07T00:41:11;6.13;;;4.00;;
74204;SDS011;62564;52.678;4.900;2023-05-07T00:43:36;6.13;;;4.10;;
74204;SDS011;62564;52.678;4.900;2023-05-07T00:46:02;5.80;;;4.13;;
74204;SDS011;62564;52.678;4.900;2023-05-07T00:48:28;5.93;;;4.00;;
74204;SDS011;62564;52.678;4.900;2023-05-07T00:50:53;5.53;;;3.70;;
74204;SDS011;62564;52.678;4.900;2023-05-07T00:53:18;6.18;;;4.55;;
74204;SDS011;62564;52.678;4.900;2023-05-07T00:55:44;7.97;;;4.63;;
74204;SDS011;62564;52.678;4.900;2023-05-07T00:58:09;5.35;;;4.03;;
74204;SDS011;62564;52.678;4.900;2023-05-07T01:00:35;5.65;;;4.47;;
74204;SDS011;62564;52.678;4.900;2023-05-07T01:03:00;5.55;;;4.07;;
74204;SDS011;62564;52.678;4.900;2023-05-07T01:05:26;5.82;;;4.25;;
74204;SDS011;62564;52.678;4.900;2023-05-07T01:07:53;6.30;;;3.30;;
74204;SDS011;62564;52.678;4.900;2023-05-07T01:15:10;7.40;;;5.72;;
74204;SDS011;62564;52.678;4.900;2023-05-07T01:17:36;6.05;;;4.05;;
74204;SDS011;62564;52.678;4.900;2023-05-07T01:22:30;6.03;;;4.57;;
74204;SDS011;62564;52.678;4.900;2023-05-07T01:24:57;8.45;;;5.10;;
74204;SDS011;62564;52.678;4.900;2023-05-07T01:27:24;7.22;;;4.15;;
74204;SDS011;62564;52.678;4.900;2023-05-07T01:29:49;7.30;;;4.75;;
74204;SDS011;62564;52.678;4.900;2023-05-07T01:32:15;5.93;;;4.22;;
74204;SDS011;62564;52.678;4.900;2023-05-07T01:34:41;6.65;;;4.45;;
74204;SDS011;62564;52.678;4.900;2023-05-07T01:37:07;6.43;;;4.45;;
74204;SDS011;62564;52.678;4.900;2023-05-07T01:39:33;6.25;;;4.80;;
74204;SDS011;62564;52.678;4.900;2023-05-07T01:41:58;6.22;;;4.78;;
74204;SDS011;62564;52.678;4.900;2023-05-07T01:44:24;6.00;;;4.68;;
74204;SDS011;62564;52.678;4.900;2023-05-07T01:46:49;6.80;;;3.95;;
74204;SDS011;62564;52.678;4.900;2023-05-07T01:49:15;6.20;;;4.25;;
74204;SDS011;62564;52.678;4.900;2023-05-07T01:51:41;6.70;;;4.60;;
74204;SDS011;62564;52.678;4.900;2023-05-07T01:54:06;6.38;;;4.47;;
74204;SDS011;62564;52.678;4.900;2023-05-07T01:56:33;6.47;;;4.18;;
74204;SDS011;62564;52.678;4.900;2023-05-07T01:58:58;6.15;;;4.90;;
74204;SDS011;62564;52.678;4.900;2023-05-07T02:01:23;6.27;;;4.00;;
74204;SDS011;62564;52.678;4.900;2023-05-07T02:03:49;6.57;;;4.33;;
74204;SDS011;62564;52.678;4.900;2023-05-07T02:06:14;5.80;;;4.28;;
74204;SDS011;62564;52.678;4.900;2023-05-07T02:08:39;5.90;;;4.10;;
74204;SDS011;62564;52.678;4.900;2023-05-07T02:11:05;6.20;;;4.23;;
74204;SDS011;62564;52.678;4.900;2023-05-07T02:13:31;6.65;;;5.30;;
74204;SDS011;62564;52.678;4.900;2023-05-07T02:15:58;5.97;;;4.47;;
74204;SDS011;62564;52.678;4.900;2023-05-07T02:18:23;6.13;;;4.43;;
74204;SDS011;62564;52.678;4.900;2023-05-07T02:20:48;5.18;;;3.60;;
74204;SDS011;62564;52.678;4.900;2023-05-07T02:23:14;5.53;;;3.60;;
74204;SDS011;62564;52.678;4.900;2023-05-07T02:25:39;6.72;;;4.95;;
74204;SDS011;62564;52.678;4.900;2023-05-07T02:28:04;5.30;;;4.03;;
74204;SDS011;62564;52.678;4.900;2023-05-07T02:30:30;5.50;;;4.07;;
74204;SDS011;62564;52.678;4.900;2023-05-07T02:32:56;6.07;;;4.28;;
74204;SDS011;62564;52.678;4.900;2023-05-07T02:35:21;6.07;;;4.83;;
74204;SDS011;62564;52.678;4.900;2023-05-07T02:37:47;4.67;;;3.87;;
74204;SDS011;62564;52.678;4.900;2023-05-07T02:40:12;5.97;;;3.93;;
74204;SDS011;62564;52.678;4.900;2023-05-07T02:42:37;5.20;;;4.20;;
74204;SDS011;62564;52.678;4.900;2023-05-07T02:45:03;4.97;;;3.90;;
74204;SDS011;62564;52.678;4.900;2023-05-07T02:47:28;4.97;;;3.83;;
74204;SDS011;62564;52.678;4.900;2023-05-07T02:49:54;4.55;;;4.03;;
74204;SDS011;62564;52.678;4.900;2023-05-07T02:52:20;5.90;;;4.32;;
74204;SDS011;62564;52.678;4.900;2023-05-07T02:54:45;4.93;;;4.43;;
74204;SDS011;62564;52.678;4.900;2023-05-07T02:57:10;5.50;;;4.00;;
74204;SDS011;62564;52.678;4.900;2023-05-07T02:59:36;4.40;;;3.60;;
74204;SDS011;62564;52.678;4.900;2023-05-07T03:02:01;5.88;;;3.72;;
74204;SDS011;62564;52.678;4.900;2023-05-07T03:04:26;7.13;;;4.80;;
74204;SDS011;62564;52.678;4.900;2023-05-07T03:06:52;4.77;;;4.23;;
74204;SDS011;62564;52.678;4.900;2023-05-07T03:09:17;5.37;;;3.97;;
74204;SDS011;62564;52.678;4.900;2023-05-07T03:11:42;4.57;;;3.58;;
74204;SDS011;62564;52.678;4.900;2023-05-07T03:14:08;4.57;;;3.58;;
74204;SDS011;62564;52.678;4.900;2023-05-07T03:16:33;4.78;;;3.50;;
74204;SDS011;62564;52.678;4.900;2023-05-07T03:18:58;4.80;;;4.10;;
74204;SDS011;62564;52.678;4.900;2023-05-07T03:21:24;5.95;;;3.58;;
74204;SDS011;62564;52.678;4.900;2023-05-07T03:23:51;4.43;;;3.35;;
74204;SDS011;62564;52.678;4.900;2023-05-07T03:26:16;4.30;;;3.70;;
74204;SDS011;62564;52.678;4.900;2023-05-07T03:28:41;4.17;;;3.43;;
74204;SDS011;62564;52.678;4.900;2023-05-07T03:31:07;4.60;;;3.30;;
74204;SDS011;62564;52.678;4.900;2023-05-07T03:33:32;4.10;;;3.70;;
74204;SDS011;62564;52.678;4.900;2023-05-07T03:35:58;4.78;;;4.28;;
74204;SDS011;62564;52.678;4.900;2023-05-07T03:38:23;4.13;;;3.73;;
74204;SDS011;62564;52.678;4.900;2023-05-07T03:40:48;4.57;;;3.57;;
74204;SDS011;62564;52.678;4.900;2023-05-07T03:43:14;4.60;;;3.03;;
74204;SDS011;62564;52.678;4.900;2023-05-07T03:45:39;5.60;;;4.97;;
74204;SDS011;62564;52.678;4.900;2023-05-07T03:48:05;5.03;;;3.70;;
74204;SDS011;62564;52.678;4.900;2023-05-07T03:50:30;4.80;;;4.17;;
74204;SDS011;62564;52.678;4.900;2023-05-07T03:52:55;4.87;;;4.27;;
74204;SDS011;62564;52.678;4.900;2023-05-07T03:55:20;5.53;;;4.17;;
74204;SDS011;62564;52.678;4.900;2023-05-07T03:57:46;4.18;;;3.78;;
74204;SDS011;62564;52.678;4.900;2023-05-07T04:00:11;4.83;;;3.80;;
74204;SDS011;62564;52.678;4.900;2023-05-07T04:02:37;4.47;;;3.60;;
74204;SDS011;62564;52.678;4.900;2023-05-07T04:05:02;4.57;;;2.97;;
74204;SDS011;62564;52.678;4.900;2023-05-07T04:07:28;5.32;;;3.78;;
74204;SDS011;62564;52.678;4.900;2023-05-07T04:09:53;4.10;;;3.15;;
74204;SDS011;62564;52.678;4.900;2023-05-07T04:12:18;4.67;;;3.47;;
74204;SDS011;62564;52.678;4.900;2023-05-07T04:14:44;4.72;;;4.32;;
74204;SDS011;62564;52.678;4.900;2023-05-07T04:17:09;4.88;;;3.30;;
74204;SDS011;62564;52.678;4.900;2023-05-07T04:19:35;3.75;;;3.10;;
74204;SDS011;62564;52.678;4.900;2023-05-07T04:22:01;3.58;;;3.08;;
74204;SDS011;62564;52.678;4.900;2023-05-07T04:24:26;3.67;;;2.87;;
74204;SDS011;62564;52.678;4.900;2023-05-07T04:26:51;4.20;;;3.60;;
74204;SDS011;62564;52.678;4.900;2023-05-07T04:29:17;3.30;;;2.92;;
74204;SDS011;62564;52.678;4.900;2023-05-07T04:31:43;4.28;;;3.85;;
74204;SDS011;62564;52.678;4.900;2023-05-07T04:34:11;4.30;;;3.85;;
74204;SDS011;62564;52.678;4.900;2023-05-07T04:36:37;3.80;;;2.83;;
74204;SDS011;62564;52.678;4.900;2023-05-07T04:39:03;4.20;;;3.20;;
74204;SDS011;62564;52.678;4.900;2023-05-07T04:41:28;4.53;;;3.45;;
74204;SDS011;62564;52.678;4.900;2023-05-07T04:43:54;3.93;;;3.23;;
74204;SDS011;62564;52.678;4.900;2023-05-07T04:46:19;3.65;;;2.80;;
74204;SDS011;62564;52.678;4.900;2023-05-07T04:48:44;3.75;;;2.92;;
74204;SDS011;62564;52.678;4.900;2023-05-07T04:51:10;4.13;;;2.80;;
74204;SDS011;62564;52.678;4.900;2023-05-07T04:53:36;5.05;;;3.55;;
74204;SDS011;62564;52.678;4.900;2023-05-07T05:00:56;3.38;;;2.55;;
74204;SDS011;62564;52.678;4.900;2023-05-07T05:03:21;4.55;;;2.67;;
74204;SDS011;62564;52.678;4.900;2023-05-07T05:05:48;4.10;;;2.70;;
74204;SDS011;62564;52.678;4.900;2023-05-07T05:08:14;3.70;;;2.78;;
74204;SDS011;62564;52.678;4.900;2023-05-07T05:10:39;3.90;;;2.80;;
74204;SDS011;62564;52.678;4.900;2023-05-07T05:13:06;3.85;;;2.67;;
74204;SDS011;62564;52.678;4.900;2023-05-07T05:15:31;3.33;;;2.40;;
74204;SDS011;62564;52.678;4.900;2023-05-07T05:17:57;3.83;;;2.70;;
74204;SDS011;62564;52.678;4.900;2023-05-07T05:20:22;3.20;;;2.10;;
74204;SDS011;62564;52.678;4.900;2023-05-07T05:22:47;3.70;;;2.13;;
74204;SDS011;62564;52.678;4.900;2023-05-07T05:25:13;3.50;;;2.63;;
74204;SDS011;62564;52.678;4.900;2023-05-07T05:27:38;4.07;;;3.00;;
74204;SDS011;62564;52.678;4.900;2023-05-07T05:30:03;3.80;;;2.97;;
74204;SDS011;62564;52.678;4.900;2023-05-07T05:32:31;3.17;;;2.60;;
74204;SDS011;62564;52.678;4.900;2023-05-07T05:34:56;3.53;;;2.47;;
74204;SDS011;62564;52.678;4.900;2023-05-07T05:37:21;3.05;;;2.38;;
74204;SDS011;62564;52.678;4.900;2023-05-07T05:39:47;3.53;;;2.50;;
74204;SDS011;62564;52.678;4.900;2023-05-07T05:42:12;3.87;;;2.83;;
74204;SDS011;62564;52.678;4.900;2023-05-07T05:44:37;4.03;;;2.83;;
74204;SDS011;62564;52.678;4.900;2023-05-07T05:47:02;4.43;;;2.57;;
74204;SDS011;62564;52.678;4.900;2023-05-07T05:49:28;3.95;;;3.10;;
74204;SDS011;62564;52.678;4.900;2023-05-07T05:51:53;3.27;;;2.50;;
74204;SDS011;62564;52.678;4.900;2023-05-07T05:54:18;3.63;;;3.00;;
74204;SDS011;62564;52.678;4.900;2023-05-07T05:56:44;3.70;;;3.05;;
74204;SDS011;62564;52.678;4.900;2023-05-07T05:59:09;3.60;;;2.97;;
74204;SDS011;62564;52.678;4.900;2023-05-07T06:01:35;4.45;;;2.58;;
74204;SDS011;62564;52.678;4.900;2023-05-07T06:04:00;4.33;;;3.47;;
74204;SDS011;62564;52.678;4.900;2023-05-07T06:06:25;3.40;;;2.80;;
74204;SDS011;62564;52.678;4.900;2023-05-07T06:08:51;3.90;;;3.17;;
74204;SDS011;62564;52.678;4.900;2023-05-07T06:11:16;3.72;;;3.05;;
74204;SDS011;62564;52.678;4.900;2023-05-07T06:13:41;3.40;;;3.10;;
74204;SDS011;62564;52.678;4.900;2023-05-07T06:16:07;3.20;;;2.47;;
74204;SDS011;62564;52.678;4.900;2023-05-07T06:18:32;3.35;;;2.70;;
74204;SDS011;62564;52.678;4.900;2023-05-07T06:20:57;3.33;;;2.60;;
74204;SDS011;62564;52.678;4.900;2023-05-07T06:23:23;3.30;;;2.87;;
74204;SDS011;62564;52.678;4.900;2023-05-07T06:25:48;3.13;;;2.15;;
74204;SDS011;62564;52.678;4.900;2023-05-07T06:28:14;3.03;;;2.55;;
74204;SDS011;62564;52.678;4.900;2023-05-07T06:30:40;3.53;;;3.10;;
74204;SDS011;62564;52.678;4.900;2023-05-07T06:33:05;3.83;;;2.30;;
74204;SDS011;62564;52.678;4.900;2023-05-07T06:35:30;3.83;;;2.37;;
74204;SDS011;62564;52.678;4.900;2023-05-07T06:37:56;3.33;;;2.60;;
74204;SDS011;62564;52.678;4.900;2023-05-07T06:40:21;3.80;;;2.27;;
74204;SDS011;62564;52.678;4.900;2023-05-07T06:42:46;4.17;;;3.33;;
74204;SDS011;62564;52.678;4.900;2023-05-07T06:45:12;2.90;;;2.23;;
74204;SDS011;62564;52.678;4.900;2023-05-07T06:47:37;3.88;;;2.97;;
74204;SDS011;62564;52.678;4.900;2023-05-07T06:50:02;3.57;;;3.17;;
74204;SDS011;62564;52.678;4.900;2023-05-07T06:52:28;3.70;;;2.97;;
74204;SDS011;62564;52.678;4.900;2023-05-07T06:54:53;3.63;;;2.63;;
74204;SDS011;62564;52.678;4.900;2023-05-07T06:57:18;3.47;;;2.50;;
74204;SDS011;62564;52.678;4.900;2023-05-07T06:59:43;4.03;;;2.57;;
74204;SDS011;62564;52.678;4.900;2023-05-07T07:02:09;3.40;;;2.63;;
74204;SDS011;62564;52.678;4.900;2023-05-07T07:04:34;3.67;;;2.50;;
74204;SDS011;62564;52.678;4.900;2023-05-07T07:06:59;3.13;;;2.60;;
74204;SDS011;62564;52.678;4.900;2023-05-07T07:09:25;3.67;;;2.53;;
74204;SDS011;62564;52.678;4.900;2023-05-07T07:11:50;5.45;;;3.30;;
74204;SDS011;62564;52.678;4.900;2023-05-07T07:14:15;3.97;;;3.05;;
74204;SDS011;62564;52.678;4.900;2023-05-07T07:16:41;3.33;;;2.78;;
74204;SDS011;62564;52.678;4.900;2023-05-07T07:19:06;3.70;;;3.20;;
74204;SDS011;62564;52.678;4.900;2023-05-07T07:21:31;3.93;;;3.20;;
74204;SDS011;62564;52.678;4.900;2023-05-07T07:23:57;2.75;;;2.17;;
74204;SDS011;62564;52.678;4.900;2023-05-07T07:26:22;4.03;;;2.75;;
74204;SDS011;62564;52.678;4.900;2023-05-07T07:28:48;3.50;;;2.70;;
74204;SDS011;62564;52.678;4.900;2023-05-07T07:31:13;3.73;;;3.17;;
74204;SDS011;62564;52.678;4.900;2023-05-07T07:33:39;3.22;;;2.85;;
74204;SDS011;62564;52.678;4.900;2023-05-07T07:36:05;3.47;;;2.25;;
74204;SDS011;62564;52.678;4.900;2023-05-07T07:38:31;3.35;;;2.38;;
74204;SDS011;62564;52.678;4.900;2023-05-07T07:40:56;3.30;;;2.22;;
74204;SDS011;62564;52.678;4.900;2023-05-07T07:43:21;4.20;;;2.55;;
74204;SDS011;62564;52.678;4.900;2023-05-07T07:45:46;4.27;;;2.93;;
74204;SDS011;62564;52.678;4.900;2023-05-07T07:48:12;3.10;;;1.90;;
74204;SDS011;62564;52.678;4.900;2023-05-07T07:50:37;3.72;;;2.67;;
74204;SDS011;62564;52.678;4.900;2023-05-07T07:53:03;2.72;;;2.00;;
74204;SDS011;62564;52.678;4.900;2023-05-07T07:55:28;3.83;;;2.70;;
74204;SDS011;62564;52.678;4.900;2023-05-07T07:57:54;3.27;;;2.20;;
74204;SDS011;62564;52.678;4.900;2023-05-07T08:00:19;3.20;;;2.28;;
74204;SDS011;62564;52.678;4.900;2023-05-07T08:02:44;3.60;;;2.70;;
74204;SDS011;62564;52.678;4.900;2023-05-07T08:05:10;4.07;;;2.63;;
74204;SDS011;62564;52.678;4.900;2023-05-07T08:07:35;3.20;;;2.07;;
74204;SDS011;62564;52.678;4.900;2023-05-07T08:10:01;3.47;;;2.60;;
74204;SDS011;62564;52.678;4.900;2023-05-07T08:12:27;3.72;;;3.33;;
74204;SDS011;62564;52.678;4.900;2023-05-07T08:14:52;3.70;;;2.13;;
74204;SDS011;62564;52.678;4.900;2023-05-07T08:17:17;3.37;;;2.30;;
74204;SDS011;62564;52.678;4.900;2023-05-07T08:19:43;3.47;;;2.77;;
74204;SDS011;62564;52.678;4.900;2023-05-07T08:22:08;4.30;;;2.67;;
74204;SDS011;62564;52.678;4.900;2023-05-07T08:24:34;3.95;;;3.40;;
74204;SDS011;62564;52.678;4.900;2023-05-07T08:26:59;3.65;;;2.22;;
74204;SDS011;62564;52.678;4.900;2023-05-07T08:29:25;3.08;;;2.42;;
74204;SDS011;62564;52.678;4.900;2023-05-07T08:31:50;3.40;;;2.17;;
74204;SDS011;62564;52.678;4.900;2023-05-07T08:34:16;3.23;;;2.27;;
74204;SDS011;62564;52.678;4.900;2023-05-07T08:36:41;4.77;;;2.50;;
74204;SDS011;62564;52.678;4.900;2023-05-07T08:39:06;3.33;;;2.63;;
74204;SDS011;62564;52.678;4.900;2023-05-07T08:41:32;3.63;;;2.67;;
74204;SDS011;62564;52.678;4.900;2023-05-07T08:43:58;5.00;;;2.28;;
74204;SDS011;62564;52.678;4.900;2023-05-07T08:46:27;5.20;;;2.80;;
74204;SDS011;62564;52.678;4.900;2023-05-07T08:48:55;3.95;;;3.10;;
74204;SDS011;62564;52.678;4.900;2023-05-07T08:51:21;3.17;;;1.98;;
74204;SDS011;62564;52.678;4.900;2023-05-07T08:53:47;3.63;;;2.30;;
74204;SDS011;62564;52.678;4.900;2023-05-07T08:56:13;2.55;;;1.70;;
74204;SDS011;62564;52.678;4.900;2023-05-07T08:58:40;3.13;;;2.22;;
74204;SDS011;62564;52.678;4.900;2023-05-07T09:03:33;3.88;;;2.65;;
74204;SDS011;62564;52.678;4.900;2023-05-07T09:05:59;2.90;;;1.77;;
74204;SDS011;62564;52.678;4.900;2023-05-07T09:08:25;2.78;;;2.25;;
74204;SDS011;62564;52.678;4.900;2023-05-07T09:10:52;3.15;;;2.00;;
74204;SDS011;62564;52.678;4.900;2023-05-07T09:13:17;2.72;;;2.08;;
74204;SDS011;62564;52.678;4.900;2023-05-07T09:15:43;3.58;;;2.38;;
74204;SDS011;62564;52.678;4.900;2023-05-07T09:18:08;3.70;;;2.65;;
74204;SDS011;62564;52.678;4.900;2023-05-07T09:20:33;3.22;;;2.08;;
74204;SDS011;62564;52.678;4.900;2023-05-07T09:23:01;3.47;;;2.20;;
74204;SDS011;62564;52.678;4.900;2023-05-07T09:25:27;4.73;;;2.50;;
74204;SDS011;62564;52.678;4.900;2023-05-07T09:27:54;2.97;;;1.70;;
74204;SDS011;62564;52.678;4.900;2023-05-07T09:30:19;2.20;;;1.70;;
74204;SDS011;62564;52.678;4.900;2023-05-07T09:32:44;3.00;;;1.60;;
74204;SDS011;62564;52.678;4.900;2023-05-07T09:35:18;2.53;;;1.80;;
74204;SDS011;62564;52.678;4.900;2023-05-07T09:37:46;2.85;;;2.15;;
74204;SDS011;62564;52.678;4.900;2023-05-07T09:40:21;3.30;;;1.50;;
74204;SDS011;62564;52.678;4.900;2023-05-07T09:42:53;2.58;;;1.40;;
74204;SDS011;62564;52.678;4.900;2023-05-07T09:45:22;3.22;;;1.30;;
74204;SDS011;62564;52.678;4.900;2023-05-07T09:47:53;2.35;;;1.25;;
74204;SDS011;62564;52.678;4.900;2023-05-07T09:50:20;2.55;;;1.45;;
74204;SDS011;62564;52.678;4.900;2023-05-07T09:52:47;2.17;;;1.67;;
74204;SDS011;62564;52.678;4.900;2023-05-07T09:55:13;3.15;;;1.40;;
74204;SDS011;62564;52.678;4.900;2023-05-07T09:57:38;2.40;;;1.48;;
74204;SDS011;62564;52.678;4.900;2023-05-07T10:00:05;2.65;;;1.65;;
74204;SDS011;62564;52.678;4.900;2023-05-07T10:02:31;3.58;;;2.03;;
74204;SDS011;62564;52.678;4.900;2023-05-07T10:04:56;3.28;;;1.77;;
74204;SDS011;62564;52.678;4.900;2023-05-07T10:07:23;3.20;;;1.50;;
74204;SDS011;62564;52.678;4.900;2023-05-07T10:09:49;3.00;;;1.70;;
74204;SDS011;62564;52.678;4.900;2023-05-07T10:12:15;2.80;;;1.40;;
74204;SDS011;62564;52.678;4.900;2023-05-07T10:14:41;4.10;;;2.33;;
74204;SDS011;62564;52.678;4.900;2023-05-07T10:17:08;3.63;;;1.63;;
74204;SDS011;62564;52.678;4.900;2023-05-07T10:19:34;3.38;;;1.90;;
74204;SDS011;62564;52.678;4.900;2023-05-07T10:22:05;2.63;;;1.30;;
74204;SDS011;62564;52.678;4.900;2023-05-07T10:24:34;2.97;;;1.98;;
74204;SDS011;62564;52.678;4.900;2023-05-07T10:27:01;2.75;;;1.52;;
74204;SDS011;62564;52.678;4.900;2023-05-07T10:29:33;3.47;;;1.98;;
74204;SDS011;62564;52.678;4.900;2023-05-07T10:34:29;2.78;;;1.63;;
74204;SDS011;62564;52.678;4.900;2023-05-07T10:37:00;2.40;;;1.35;;
74204;SDS011;62564;52.678;4.900;2023-05-07T10:39:25;2.88;;;2.10;;
74204;SDS011;62564;52.678;4.900;2023-05-07T10:41:51;2.90;;;1.25;;
74204;SDS011;62564;52.678;4.900;2023-05-07T10:44:29;3.92;;;1.85;;
74204;SDS011;62564;52.678;4.900;2023-05-07T10:47:04;4.05;;;1.83;;
74204;SDS011;62564;52.678;4.900;2023-05-07T10:49:34;3.10;;;1.42;;
74204;SDS011;62564;52.678;4.900;2023-05-07T10:52:15;4.63;;;1.77;;
74204;SDS011;62564;52.678;4.900;2023-05-07T10:54:43;3.58;;;1.70;;
74204;SDS011;62564;52.678;4.900;2023-05-07T11:00:02;2.38;;;1.50;;
74204;SDS011;62564;52.678;4.900;2023-05-07T11:05:25;3.05;;;1.30;;
74204;SDS011;62564;52.678;4.900;2023-05-07T11:07:54;3.38;;;1.80;;
74204;SDS011;62564;52.678;4.900;2023-05-07T11:10:20;3.38;;;1.48;;
74204;SDS011;62564;52.678;4.900;2023-05-07T11:12:46;3.03;;;1.48;;
74204;SDS011;62564;52.678;4.900;2023-05-07T11:15:13;4.78;;;2.13;;
74204;SDS011;62564;52.678;4.900;2023-05-07T11:17:52;2.92;;;1.15;;
74204;SDS011;62564;52.678;4.900;2023-05-07T11:20:42;3.58;;;1.60;;
74204;SDS011;62564;52.678;4.900;2023-05-07T11:23:33;3.90;;;2.28;;
74204;SDS011;62564;52.678;4.900;2023-05-07T11:26:01;3.28;;;2.05;;
74204;SDS011;62564;52.678;4.900;2023-05-07T11:28:28;3.95;;;2.00;;
74204;SDS011;62564;52.678;4.900;2023-05-07T11:30:54;2.65;;;1.50;;
74204;SDS011;62564;52.678;4.900;2023-05-07T11:33:21;3.70;;;1.80;;
74204;SDS011;62564;52.678;4.900;2023-05-07T11:35:47;3.25;;;1.95;;
74204;SDS011;62564;52.678;4.900;2023-05-07T11:38:12;3.88;;;2.85;;
74204;SDS011;62564;52.678;4.900;2023-05-07T11:40:54;3.65;;;3.03;;
74204;SDS011;62564;52.678;4.900;2023-05-07T11:43:21;3.75;;;2.42;;
74204;SDS011;62564;52.678;4.900;2023-05-07T11:45:46;4.65;;;2.72;;
74204;SDS011;62564;52.678;4.900;2023-05-07T11:48:15;5.75;;;2.70;;
74204;SDS011;62564;52.678;4.900;2023-05-07T11:50:51;4.47;;;2.33;;
74204;SDS011;62564;52.678;4.900;2023-05-07T11:53:17;7.03;;;3.38;;
74204;SDS011;62564;52.678;4.900;2023-05-07T11:55:43;10.65;;;3.65;;
74204;SDS011;62564;52.678;4.900;2023-05-07T11:58:10;10.13;;;4.28;;
74204;SDS011;62564;52.678;4.900;2023-05-07T12:00:36;12.55;;;4.78;;
74204;SDS011;62564;52.678;4.900;2023-05-07T12:03:03;8.83;;;3.73;;
74204;SDS011;62564;52.678;4.900;2023-05-07T12:05:29;7.65;;;4.65;;
74204;SDS011;62564;52.678;4.900;2023-05-07T12:07:55;8.30;;;4.97;;
74204;SDS011;62564;52.678;4.900;2023-05-07T12:10:23;8.70;;;4.45;;
74204;SDS011;62564;52.678;4.900;2023-05-07T12:12:49;7.72;;;4.43;;
74204;SDS011;62564;52.678;4.900;2023-05-07T12:15:15;9.02;;;5.82;;
74204;SDS011;62564;52.678;4.900;2023-05-07T12:17:42;10.05;;;6.28;;
74204;SDS011;62564;52.678;4.900;2023-05-07T12:20:07;7.70;;;5.95;;
74204;SDS011;62564;52.678;4.900;2023-05-07T12:22:33;6.88;;;4.53;;
74204;SDS011;62564;52.678;4.900;2023-05-07T12:24:58;7.35;;;5.43;;
74204;SDS011;62564;52.678;4.900;2023-05-07T12:27:25;9.43;;;5.47;;
74204;SDS011;62564;52.678;4.900;2023-05-07T12:29:50;8.73;;;5.05;;
74204;SDS011;62564;52.678;4.900;2023-05-07T12:32:16;8.30;;;5.20;;
74204;SDS011;62564;52.678;4.900;2023-05-07T12:34:43;10.35;;;6.22;;
74204;SDS011;62564;52.678;4.900;2023-05-07T12:37:09;9.10;;;5.28;;
74204;SDS011;62564;52.678;4.900;2023-05-07T12:39:35;7.85;;;6.25;;
74204;SDS011;62564;52.678;4.900;2023-05-07T12:42:00;8.02;;;5.68;;
74204;SDS011;62564;52.678;4.900;2023-05-07T12:44:29;10.13;;;6.05;;
74204;SDS011;62564;52.678;4.900;2023-05-07T12:46:56;8.00;;;5.28;;
74204;SDS011;62564;52.678;4.900;2023-05-07T12:49:21;8.10;;;5.30;;
74204;SDS011;62564;52.678;4.900;2023-05-07T12:51:47;8.50;;;6.22;;
74204;SDS011;62564;52.678;4.900;2023-05-07T12:54:13;7.75;;;5.55;;
74204;SDS011;62564;52.678;4.900;2023-05-07T12:56:39;7.25;;;5.00;;
74204;SDS011;62564;52.678;4.900;2023-05-07T12:59:04;6.93;;;5.05;;
74204;SDS011;62564;52.678;4.900;2023-05-07T13:01:30;6.45;;;4.80;;
74204;SDS011;62564;52.678;4.900;2023-05-07T13:03:56;8.50;;;5.07;;
74204;SDS011;62564;52.678;4.900;2023-05-07T13:06:25;8.93;;;5.22;;
74204;SDS011;62564;52.678;4.900;2023-05-07T13:08:51;8.85;;;5.95;;
74204;SDS011;62564;52.678;4.900;2023-05-07T13:11:16;8.65;;;4.70;;
74204;SDS011;62564;52.678;4.900;2023-05-07T13:13:41;7.63;;;6.00;;
74204;SDS011;62564;52.678;4.900;2023-05-07T13:16:07;6.97;;;5.07;;
74204;SDS011;62564;52.678;4.900;2023-05-07T13:20:59;7.43;;;4.75;;
74204;SDS011;62564;52.678;4.900;2023-05-07T13:23:25;9.52;;;5.03;;
74204;SDS011;62564;52.678;4.900;2023-05-07T13:25:51;7.82;;;5.32;;
74204;SDS011;62564;52.678;4.900;2023-05-07T13:28:18;7.50;;;4.97;;
74204;SDS011;62564;52.678;4.900;2023-05-07T13:30:45;7.03;;;5.20;;
74204;SDS011;62564;52.678;4.900;2023-05-07T13:33:10;8.40;;;6.22;;
74204;SDS011;62564;52.678;4.900;2023-05-07T13:35:35;7.47;;;5.37;;
74204;SDS011;62564;52.678;4.900;2023-05-07T13:38:01;7.22;;;6.50;;
74204;SDS011;62564;52.678;4.900;2023-05-07T13:40:26;7.38;;;5.65;;
74204;SDS011;62564;52.678;4.900;2023-05-07T13:42:51;6.50;;;4.93;;
74204;SDS011;62564;52.678;4.900;2023-05-07T13:45:20;7.63;;;5.63;;
74204;SDS011;62564;52.678;4.900;2023-05-07T13:47:45;7.03;;;4.78;;
74204;SDS011;62564;52.678;4.900;2023-05-07T13:50:11;8.35;;;5.82;;
74204;SDS011;62564;52.678;4.900;2023-05-07T13:55:05;7.07;;;4.55;;
74204;SDS011;62564;52.678;4.900;2023-05-07T13:57:30;6.95;;;4.07;;
74204;SDS011;62564;52.678;4.900;2023-05-07T13:59:56;6.23;;;4.43;;
74204;SDS011;62564;52.678;4.900;2023-05-07T14:02:21;8.43;;;4.90;;
74204;SDS011;62564;52.678;4.900;2023-05-07T14:04:46;7.23;;;4.40;;
74204;SDS011;62564;52.678;4.900;2023-05-07T14:07:12;6.00;;;5.00;;
74204;SDS011;62564;52.678;4.900;2023-05-07T14:09:37;5.97;;;4.90;;
74204;SDS011;62564;52.678;4.900;2023-05-07T14:12:02;7.60;;;4.83;;
74204;SDS011;62564;52.678;4.900;2023-05-07T14:14:28;5.80;;;4.00;;
74204;SDS011;62564;52.678;4.900;2023-05-07T14:16:53;5.80;;;5.20;;
74204;SDS011;62564;52.678;4.900;2023-05-07T14:19:18;5.97;;;4.53;;
74204;SDS011;62564;52.678;4.900;2023-05-07T14:21:44;6.72;;;5.03;;
74204;SDS011;62564;52.678;4.900;2023-05-07T14:24:09;5.30;;;4.10;;
74204;SDS011;62564;52.678;4.900;2023-05-07T14:26:34;7.18;;;3.95;;
74204;SDS011;62564;52.678;4.900;2023-05-07T14:29:00;5.45;;;4.47;;
74204;SDS011;62564;52.678;4.900;2023-05-07T14:31:25;7.50;;;4.67;;
74204;SDS011;62564;52.678;4.900;2023-05-07T14:33:51;6.72;;;3.80;;
74204;SDS011;62564;52.678;4.900;2023-05-07T14:36:17;5.20;;;3.70;;
74204;SDS011;62564;52.678;4.900;2023-05-07T14:38:44;6.78;;;4.43;;
74204;SDS011;62564;52.678;4.900;2023-05-07T14:41:10;5.80;;;4.18;;
74204;SDS011;62564;52.678;4.900;2023-05-07T14:43:35;5.33;;;3.80;;
74204;SDS011;62564;52.678;4.900;2023-05-07T14:46:00;6.57;;;4.47;;
74204;SDS011;62564;52.678;4.900;2023-05-07T14:48:26;5.80;;;4.10;;
74204;SDS011;62564;52.678;4.900;2023-05-07T14:50:51;6.27;;;5.23;;
74204;SDS011;62564;52.678;4.900;2023-05-07T14:53:16;5.27;;;4.40;;
74204;SDS011;62564;52.678;4.900;2023-05-07T14:55:42;5.22;;;4.00;;
74204;SDS011;62564;52.678;4.900;2023-05-07T14:58:07;6.25;;;3.95;;
74204;SDS011;62564;52.678;4.900;2023-05-07T15:00:33;5.47;;;4.18;;
74204;SDS011;62564;52.678;4.900;2023-05-07T15:03:01;5.40;;;3.83;;
74204;SDS011;62564;52.678;4.900;2023-05-07T15:05:32;5.72;;;3.30;;
74204;SDS011;62564;52.678;4.900;2023-05-07T15:07:57;5.80;;;3.45;;